sensor_id;sensor_type;location;lat;lon;timestamp;pressure;altitude;pressure_sealevel;temperature;humidity
80627;BME280;69982;51.758;5.784;2024-02-26T01:39:20;99890.85;;;6.74;71.60
80627;BME280;69982;51.758;5.784;2024-02-26T01:41:49;99896.62;;;6.76;71.43
80627;BME280;69982;51.758;5.784;2024-02-26T02:05:21;99929.06;;;6.68;71.23
80627;BME280;69982;51.758;5.784;2024-02-26T02:10:58;99933.58;;;6.75;71.35
80627;BME280;69982;51.758;5.784;2024-02-26T02:13:37;99929.80;;;6.78;71.51
80627;BME280;69982;51.758;5.784;2024-02-26T02:16:18;99934.45;;;6.82;71.76
80627;BME280;69982;51.758;5.784;2024-02-26T02:18:47;99942.11;;;6.84;72.07
80627;BME280;69982;51.758;5.784;2024-02-26T02:21:19;99945.15;;;6.84;72.26
80627;BME280;69982;51.758;5.784;2024-02-26T02:23:59;99939.33;;;6.83;72.12
80627;BME280;69982;51.758;5.784;2024-02-26T02:26:33;99937.17;;;6.80;72.25
80627;BME280;69982;51.758;5.784;2024-02-26T02:29:22;99940.13;;;6.76;72.48
80627;BME280;69982;51.758;5.784;2024-02-26T02:32:02;99941.43;;;6.72;72.81
80627;BME280;69982;51.758;5.784;2024-02-26T02:34:31;99943.91;;;6.69;73.05
80627;BME280;69982;51.758;5.784;2024-02-26T02:37:16;99939.81;;;6.65;73.14
80627;BME280;69982;51.758;5.784;2024-02-26T02:39:46;99935.20;;;6.61;73.24
80627;BME280;69982;51.758;5.784;2024-02-26T02:42:27;99934.28;;;6.57;73.67
80627;BME280;69982;51.758;5.784;2024-02-26T02:44:55;99931.91;;;6.55;73.72
80627;BME280;69982;51.758;5.784;2024-02-26T02:47:23;99928.69;;;6.57;73.94
80627;BME280;69982;51.758;5.784;2024-02-26T02:49:50;99930.05;;;6.59;74.03
80627;BME280;69982;51.758;5.784;2024-02-26T02:52:17;99928.13;;;6.60;73.96
80627;BME280;69982;51.758;5.784;2024-02-26T02:54:44;99930.60;;;6.62;73.90
80627;BME280;69982;51.758;5.784;2024-02-26T02:57:10;99931.20;;;6.63;74.16
80627;BME280;69982;51.758;5.784;2024-02-26T02:59:37;99929.46;;;6.65;74.20
80627;BME280;69982;51.758;5.784;2024-02-26T03:02:06;99930.45;;;6.65;74.37
80627;BME280;69982;51.758;5.784;2024-02-26T03:04:35;99936.02;;;6.66;74.60
80627;BME280;69982;51.758;5.784;2024-02-26T03:07:02;99933.44;;;6.64;74.68
80627;BME280;69982;51.758;5.784;2024-02-26T03:09:29;99934.14;;;6.61;74.93
80627;BME280;69982;51.758;5.784;2024-02-26T03:11:55;99938.30;;;6.56;74.93
80627;BME280;69982;51.758;5.784;2024-02-26T03:14:22;99937.52;;;6.51;75.18
80627;BME280;69982;51.758;5.784;2024-02-26T03:16:52;99929.83;;;6.47;75.37
80627;BME280;69982;51.758;5.784;2024-02-26T03:19:20;99936.45;;;6.42;75.62
80627;BME280;69982;51.758;5.784;2024-02-26T03:21:46;99935.29;;;6.40;75.74
80627;BME280;69982;51.758;5.784;2024-02-26T03:24:13;99937.95;;;6.40;76.03
80627;BME280;69982;51.758;5.784;2024-02-26T03:26:41;99938.39;;;6.40;75.99
80627;BME280;69982;51.758;5.784;2024-02-26T03:29:10;99940.63;;;6.42;76.16
80627;BME280;69982;51.758;5.784;2024-02-26T03:31:42;99948.29;;;6.44;76.22
80627;BME280;69982;51.758;5.784;2024-02-26T03:34:09;99948.67;;;6.46;76.32
80627;BME280;69982;51.758;5.784;2024-02-26T03:36:41;99945.59;;;6.44;76.39
80627;BME280;69982;51.758;5.784;2024-02-26T03:39:17;99950.00;;;6.43;76.59
80627;BME280;69982;51.758;5.784;2024-02-26T06:08:24;100023.09;;;6.10;79.55
80627;BME280;69982;51.758;5.784;2024-02-26T06:10:51;100029.22;;;6.05;79.69
80627;BME280;69982;51.758;5.784;2024-02-26T06:13:21;100029.39;;;6.01;79.65
80627;BME280;69982;51.758;5.784;2024-02-26T06:15:47;100033.27;;;6.02;79.89
80627;BME280;69982;51.758;5.784;2024-02-26T06:18:16;100030.73;;;6.02;79.94
80627;BME280;69982;51.758;5.784;2024-02-26T06:20:45;100027.52;;;6.04;79.91
80627;BME280;69982;51.758;5.784;2024-02-26T06:23:15;100028.40;;;6.04;79.73
80627;BME280;69982;51.758;5.784;2024-02-26T06:25:42;100029.71;;;6.03;79.94
80627;BME280;69982;51.758;5.784;2024-02-26T06:28:10;100039.48;;;6.03;79.90
80627;BME280;69982;51.758;5.784;2024-02-26T06:30:37;100040.48;;;6.02;80.08
80627;BME280;69982;51.758;5.784;2024-02-26T06:33:04;100043.42;;;5.99;80.15
80627;BME280;69982;51.758;5.784;2024-02-26T06:35:42;100043.63;;;5.96;80.37
80627;BME280;69982;51.758;5.784;2024-02-26T06:38:11;100047.52;;;5.91;80.29
80627;BME280;69982;51.758;5.784;2024-02-26T06:40:48;100061.95;;;5.92;80.38
80627;BME280;69982;51.758;5.784;2024-02-26T06:43:24;100056.41;;;5.97;80.59
80627;BME280;69982;51.758;5.784;2024-02-26T06:45:53;100061.31;;;6.03;80.47
80627;BME280;69982;51.758;5.784;2024-02-26T06:48:19;100063.06;;;6.07;80.00
80627;BME280;69982;51.758;5.784;2024-02-26T06:50:46;100064.25;;;6.08;80.13
80627;BME280;69982;51.758;5.784;2024-02-26T06:53:13;100066.05;;;6.06;80.25
80627;BME280;69982;51.758;5.784;2024-02-26T06:55:39;100072.32;;;6.03;80.21
80627;BME280;69982;51.758;5.784;2024-02-26T06:58:06;100081.09;;;6.00;80.30
80627;BME280;69982;51.758;5.784;2024-02-26T07:00:33;100077.96;;;5.97;80.34
80627;BME280;69982;51.758;5.784;2024-02-26T07:02:59;100083.98;;;5.93;80.45
80627;BME280;69982;51.758;5.784;2024-02-26T07:05:29;100082.14;;;5.87;80.61
80627;BME280;69982;51.758;5.784;2024-02-26T07:07:55;100086.31;;;5.85;80.56
80627;BME280;69982;51.758;5.784;2024-02-26T07:10:22;100085.91;;;5.85;80.80
80627;BME280;69982;51.758;5.784;2024-02-26T07:12:50;100091.77;;;5.86;80.80
80627;BME280;69982;51.758;5.784;2024-02-26T07:15:23;100089.62;;;5.86;80.93
80627;BME280;69982;51.758;5.784;2024-02-26T07:17:49;100094.98;;;5.88;81.63
80627;BME280;69982;51.758;5.784;2024-02-26T07:20:30;100101.21;;;5.91;81.34
80627;BME280;69982;51.758;5.784;2024-02-26T07:22:59;100100.81;;;5.91;81.26
80627;BME280;69982;51.758;5.784;2024-02-26T07:25:28;100106.23;;;5.89;81.12
80627;BME280;69982;51.758;5.784;2024-02-26T07:27:54;100110.13;;;5.86;81.28
80627;BME280;69982;51.758;5.784;2024-02-26T07:30:21;100112.17;;;5.81;81.22
80627;BME280;69982;51.758;5.784;2024-02-26T07:32:48;100113.70;;;5.79;81.41
80627;BME280;69982;51.758;5.784;2024-02-26T07:35:35;100124.48;;;5.80;81.55
80627;BME280;69982;51.758;5.784;2024-02-26T07:38:06;100121.09;;;5.84;81.46
80627;BME280;69982;51.758;5.784;2024-02-26T07:40:34;100123.41;;;5.88;81.27
80627;BME280;69982;51.758;5.784;2024-02-26T07:43:02;100124.21;;;5.91;81.29
80627;BME280;69982;51.758;5.784;2024-02-26T07:45:30;100121.54;;;5.93;81.43
80627;BME280;69982;51.758;5.784;2024-02-26T07:47:58;100128.08;;;5.93;81.38
80627;BME280;69982;51.758;5.784;2024-02-26T07:50:37;100130.27;;;5.93;81.36
80627;BME280;69982;51.758;5.784;2024-02-26T07:53:15;100129.83;;;5.90;81.45
80627;BME280;69982;51.758;5.784;2024-02-26T07:55:43;100133.23;;;5.89;81.47
80627;BME280;69982;51.758;5.784;2024-02-26T07:58:16;100137.80;;;5.84;81.53
80627;BME280;69982;51.758;5.784;2024-02-26T08:00:47;100140.53;;;5.81;81.55
80627;BME280;69982;51.758;5.784;2024-02-26T08:03:15;100144.41;;;5.82;81.48
80627;BME280;69982;51.758;5.784;2024-02-26T08:05:42;100147.47;;;5.82;81.74
80627;BME280;69982;51.758;5.784;2024-02-26T08:08:09;100147.52;;;5.85;81.63
80627;BME280;69982;51.758;5.784;2024-02-26T08:10:36;100154.73;;;5.87;81.55
80627;BME280;69982;51.758;5.784;2024-02-26T08:13:12;100156.52;;;5.89;81.60
80627;BME280;69982;51.758;5.784;2024-02-26T08:15:39;100154.38;;;5.89;81.39
80627;BME280;69982;51.758;5.784;2024-02-26T08:18:06;100158.27;;;5.88;81.65
80627;BME280;69982;51.758;5.784;2024-02-26T08:20:33;100160.12;;;5.87;81.84
80627;BME280;69982;51.758;5.784;2024-02-26T08:23:04;100162.96;;;5.85;81.72
80627;BME280;69982;51.758;5.784;2024-02-26T08:25:31;100163.66;;;5.84;81.90
80627;BME280;69982;51.758;5.784;2024-02-26T08:27:58;100170.08;;;5.86;82.10
80627;BME280;69982;51.758;5.784;2024-02-26T08:30:24;100163.73;;;5.89;82.04
80627;BME280;69982;51.758;5.784;2024-02-26T08:32:51;100169.94;;;5.94;82.02
80627;BME280;69982;51.758;5.784;2024-02-26T08:35:20;100172.61;;;5.97;81.80
80627;BME280;69982;51.758;5.784;2024-02-26T08:37:48;100173.55;;;6.00;81.95
80627;BME280;69982;51.758;5.784;2024-02-26T08:40:15;100172.08;;;6.04;82.08
80627;BME280;69982;51.758;5.784;2024-02-26T08:42:59;100179.38;;;6.07;81.96
80627;BME280;69982;51.758;5.784;2024-02-26T08:45:39;100184.09;;;6.06;81.92
80627;BME280;69982;51.758;5.784;2024-02-26T08:48:06;100187.41;;;6.05;82.15
80627;BME280;69982;51.758;5.784;2024-02-26T08:50:37;100193.42;;;6.03;82.07
80627;BME280;69982;51.758;5.784;2024-02-26T08:53:04;100203.27;;;6.01;82.11
80627;BME280;69982;51.758;5.784;2024-02-26T08:55:34;100209.70;;;6.00;82.34
80627;BME280;69982;51.758;5.784;2024-02-26T08:58:01;100214.08;;;6.01;82.34
80627;BME280;69982;51.758;5.784;2024-02-26T09:00:48;100221.27;;;6.01;82.39
80627;BME280;69982;51.758;5.784;2024-02-26T09:03:16;100225.98;;;6.02;82.38
80627;BME280;69982;51.758;5.784;2024-02-26T09:05:43;100225.60;;;6.03;82.44
80627;BME280;69982;51.758;5.784;2024-02-26T09:08:10;100225.27;;;6.04;82.46
80627;BME280;69982;51.758;5.784;2024-02-26T09:11:04;100230.66;;;6.06;82.58
80627;BME280;69982;51.758;5.784;2024-02-26T09:13:31;100228.55;;;6.07;82.59
80627;BME280;69982;51.758;5.784;2024-02-26T09:16:26;100234.11;;;6.06;82.59
80627;BME280;69982;51.758;5.784;2024-02-26T09:19:10;100233.19;;;6.04;82.60
80627;BME280;69982;51.758;5.784;2024-02-26T09:21:57;100236.72;;;6.07;82.65
80627;BME280;69982;51.758;5.784;2024-02-26T09:24:28;100237.95;;;6.10;82.77
80627;BME280;69982;51.758;5.784;2024-02-26T09:26:56;100247.24;;;6.14;82.77
80627;BME280;69982;51.758;5.784;2024-02-26T09:29:27;100251.89;;;6.20;82.79
80627;BME280;69982;51.758;5.784;2024-02-26T09:31:56;100257.85;;;6.25;82.84
80627;BME280;69982;51.758;5.784;2024-02-26T09:34:41;100260.66;;;6.28;82.83
80627;BME280;69982;51.758;5.784;2024-02-26T09:37:18;100262.45;;;6.28;82.86
80627;BME280;69982;51.758;5.784;2024-02-26T09:39:46;100262.84;;;6.26;82.66
80627;BME280;69982;51.758;5.784;2024-02-26T09:42:26;100269.31;;;6.24;82.70
80627;BME280;69982;51.758;5.784;2024-02-26T09:45:08;100271.44;;;6.20;82.67
80627;BME280;69982;51.758;5.784;2024-02-26T09:47:39;100272.27;;;6.19;82.76
80627;BME280;69982;51.758;5.784;2024-02-26T09:50:10;100275.33;;;6.21;82.65
80627;BME280;69982;51.758;5.784;2024-02-26T09:53:06;100280.38;;;6.25;82.73
80627;BME280;69982;51.758;5.784;2024-02-26T09:55:45;100276.96;;;6.30;82.59
80627;BME280;69982;51.758;5.784;2024-02-26T09:58:22;100278.22;;;6.34;82.44
80627;BME280;69982;51.758;5.784;2024-02-26T10:01:00;100288.61;;;6.38;82.63
80627;BME280;69982;51.758;5.784;2024-02-26T10:03:41;100290.59;;;6.39;82.35
80627;BME280;69982;51.758;5.784;2024-02-26T10:06:36;100296.27;;;6.36;82.29
80627;BME280;69982;51.758;5.784;2024-02-26T10:09:07;100299.66;;;6.33;82.32
80627;BME280;69982;51.758;5.784;2024-02-26T10:12:05;100307.31;;;6.28;82.53
80627;BME280;69982;51.758;5.784;2024-02-26T10:14:34;100311.79;;;6.27;82.54
80627;BME280;69982;51.758;5.784;2024-02-26T10:17:08;100307.50;;;6.27;82.51
80627;BME280;69982;51.758;5.784;2024-02-26T10:19:45;100311.42;;;6.29;82.42
80627;BME280;69982;51.758;5.784;2024-02-26T10:22:28;100315.58;;;6.32;82.44
80627;BME280;69982;51.758;5.784;2024-02-26T10:25:08;100327.85;;;6.35;82.54
80627;BME280;69982;51.758;5.784;2024-02-26T10:28:00;100335.45;;;6.36;82.63
80627;BME280;69982;51.758;5.784;2024-02-26T10:30:31;100343.02;;;6.38;82.78
80627;BME280;69982;51.758;5.784;2024-02-26T10:33:02;100338.61;;;6.39;82.80
80627;BME280;69982;51.758;5.784;2024-02-26T10:35:35;100350.14;;;6.39;82.78
80627;BME280;69982;51.758;5.784;2024-02-26T10:38:34;100349.44;;;6.37;82.79
80627;BME280;69982;51.758;5.784;2024-02-26T10:41:22;100354.52;;;6.36;83.10
80627;BME280;69982;51.758;5.784;2024-02-26T10:43:56;100358.73;;;6.39;83.08
80627;BME280;69982;51.758;5.784;2024-02-26T10:46:42;100361.92;;;6.43;83.00
80627;BME280;69982;51.758;5.784;2024-02-26T10:49:15;100367.09;;;6.47;82.80
80627;BME280;69982;51.758;5.784;2024-02-26T10:51:58;100377.06;;;6.52;82.72
80627;BME280;69982;51.758;5.784;2024-02-26T10:54:42;100381.80;;;6.57;82.54
80627;BME280;69982;51.758;5.784;2024-02-26T10:57:14;100380.17;;;6.59;82.28
80627;BME280;69982;51.758;5.784;2024-02-26T11:00:02;100387.89;;;6.59;82.29
80627;BME280;69982;51.758;5.784;2024-02-26T11:02:34;100391.11;;;6.58;82.41
80627;BME280;69982;51.758;5.784;2024-02-26T11:05:09;100388.23;;;6.56;82.46
80627;BME280;69982;51.758;5.784;2024-02-26T11:07:39;100398.30;;;6.52;82.47
80627;BME280;69982;51.758;5.784;2024-02-26T11:10:29;100399.73;;;6.50;82.64
80627;BME280;69982;51.758;5.784;2024-02-26T11:13:07;100407.45;;;6.48;82.68
80627;BME280;69982;51.758;5.784;2024-02-26T11:15:58;100410.71;;;6.50;82.76
80627;BME280;69982;51.758;5.784;2024-02-26T11:18:27;100412.70;;;6.52;82.66
80627;BME280;69982;51.758;5.784;2024-02-26T11:21:04;100414.91;;;6.55;82.74
80627;BME280;69982;51.758;5.784;2024-02-26T11:23:34;100412.99;;;6.58;82.83
80627;BME280;69982;51.758;5.784;2024-02-26T11:26:29;100420.36;;;6.62;82.80
80627;BME280;69982;51.758;5.784;2024-02-26T11:28:59;100420.66;;;6.64;82.76
80627;BME280;69982;51.758;5.784;2024-02-26T11:31:27;100419.89;;;6.65;82.93
80627;BME280;69982;51.758;5.784;2024-02-26T11:34:07;100422.53;;;6.65;83.06
80627;BME280;69982;51.758;5.784;2024-02-26T11:36:37;100425.03;;;6.63;82.95
80627;BME280;69982;51.758;5.784;2024-02-26T11:39:25;100423.17;;;6.60;82.81
80627;BME280;69982;51.758;5.784;2024-02-26T11:41:52;100430.06;;;6.58;82.69
80627;BME280;69982;51.758;5.784;2024-02-26T11:44:37;100430.84;;;6.56;83.06
80627;BME280;69982;51.758;5.784;2024-02-26T11:47:13;100435.02;;;6.55;82.83
80627;BME280;69982;51.758;5.784;2024-02-26T11:49:44;100429.11;;;6.55;82.86
80627;BME280;69982;51.758;5.784;2024-02-26T11:52:23;100435.46;;;6.56;82.75
80627;BME280;69982;51.758;5.784;2024-02-26T11:54:56;100435.17;;;6.57;82.99
80627;BME280;69982;51.758;5.784;2024-02-26T11:57:32;100439.27;;;6.58;82.92
80627;BME280;69982;51.758;5.784;2024-02-26T12:00:12;100437.06;;;6.55;82.76
80627;BME280;69982;51.758;5.784;2024-02-26T12:02:55;100441.48;;;6.52;82.87
80627;BME280;69982;51.758;5.784;2024-02-26T12:05:32;100447.38;;;6.48;82.79
80627;BME280;69982;51.758;5.784;2024-02-26T12:08:07;100449.22;;;6.47;82.88
80627;BME280;69982;51.758;5.784;2024-02-26T12:10:38;100448.45;;;6.48;82.84
80627;BME280;69982;51.758;5.784;2024-02-26T12:13:07;100453.39;;;6.49;82.93
80627;BME280;69982;51.758;5.784;2024-02-26T12:15:39;100457.34;;;6.53;82.85
80627;BME280;69982;51.758;5.784;2024-02-26T12:18:07;100459.80;;;6.56;82.69
80627;BME280;69982;51.758;5.784;2024-02-26T12:20:34;100467.86;;;6.56;82.76
80627;BME280;69982;51.758;5.784;2024-02-26T12:23:03;100467.33;;;6.56;82.92
80627;BME280;69982;51.758;5.784;2024-02-26T12:25:33;100467.98;;;6.57;82.84
80627;BME280;69982;51.758;5.784;2024-02-26T12:28:00;100468.67;;;6.55;82.92
80627;BME280;69982;51.758;5.784;2024-02-26T12:30:26;100472.25;;;6.53;82.98
80627;BME280;69982;51.758;5.784;2024-02-26T12:32:56;100482.09;;;6.50;82.79
80627;BME280;69982;51.758;5.784;2024-02-26T12:35:24;100483.99;;;6.51;83.01
80627;BME280;69982;51.758;5.784;2024-02-26T12:37:52;100492.67;;;6.52;83.02
80627;BME280;69982;51.758;5.784;2024-02-26T12:40:20;100493.54;;;6.55;83.02
80627;BME280;69982;51.758;5.784;2024-02-26T12:42:47;100501.96;;;6.57;82.98
80627;BME280;69982;51.758;5.784;2024-02-26T12:45:15;100499.48;;;6.58;82.80
80627;BME280;69982;51.758;5.784;2024-02-26T12:47:43;100511.92;;;6.58;83.00
80627;BME280;69982;51.758;5.784;2024-02-26T12:50:10;100514.94;;;6.58;82.88
80627;BME280;69982;51.758;5.784;2024-02-26T12:52:39;100512.80;;;6.58;82.92
80627;BME280;69982;51.758;5.784;2024-02-26T12:55:06;100512.73;;;6.57;82.71
80627;BME280;69982;51.758;5.784;2024-02-26T12:57:38;100512.65;;;6.54;82.97
80627;BME280;69982;51.758;5.784;2024-02-26T13:00:07;100519.67;;;6.52;82.75
80627;BME280;69982;51.758;5.784;2024-02-26T13:02:38;100523.23;;;6.53;82.85
80627;BME280;69982;51.758;5.784;2024-02-26T13:05:06;100526.42;;;6.53;82.76
80627;BME280;69982;51.758;5.784;2024-02-26T13:07:34;100526.88;;;6.54;82.78
80627;BME280;69982;51.758;5.784;2024-02-26T13:10:07;100531.81;;;6.55;82.89
80627;BME280;69982;51.758;5.784;2024-02-26T13:12:34;100538.13;;;6.55;82.86
80627;BME280;69982;51.758;5.784;2024-02-26T13:15:01;100540.96;;;6.53;82.92
80627;BME280;69982;51.758;5.784;2024-02-26T13:17:32;100548.80;;;6.52;83.16
80627;BME280;69982;51.758;5.784;2024-02-26T13:20:00;100555.52;;;6.49;82.97
80627;BME280;69982;51.758;5.784;2024-02-26T13:22:26;100556.55;;;6.48;83.13
80627;BME280;69982;51.758;5.784;2024-02-26T13:24:57;100560.34;;;6.49;83.20
80627;BME280;69982;51.758;5.784;2024-02-26T13:27:23;100563.23;;;6.54;83.32
80627;BME280;69982;51.758;5.784;2024-02-26T13:30:09;100563.27;;;6.57;83.30
80627;BME280;69982;51.758;5.784;2024-02-26T13:32:38;100565.19;;;6.59;83.38
80627;BME280;69982;51.758;5.784;2024-02-26T13:35:09;100569.44;;;6.64;83.25
80627;BME280;69982;51.758;5.784;2024-02-26T13:37:37;100574.70;;;6.67;83.26
80627;BME280;69982;51.758;5.784;2024-02-26T13:40:10;100576.03;;;6.68;83.12
80627;BME280;69982;51.758;5.784;2024-02-26T13:42:37;100579.45;;;6.66;83.05
80627;BME280;69982;51.758;5.784;2024-02-26T13:45:05;100585.39;;;6.66;83.35
80627;BME280;69982;51.758;5.784;2024-02-26T13:47:35;100584.17;;;6.66;83.32
80627;BME280;69982;51.758;5.784;2024-02-26T13:50:05;100592.84;;;6.63;83.26
80627;BME280;69982;51.758;5.784;2024-02-26T13:52:31;100598.95;;;6.63;83.29
80627;BME280;69982;51.758;5.784;2024-02-26T13:55:01;100603.77;;;6.66;83.22
80627;BME280;69982;51.758;5.784;2024-02-26T13:57:31;100604.80;;;6.70;83.35
80627;BME280;69982;51.758;5.784;2024-02-26T13:59:57;100607.55;;;6.73;83.31
80627;BME280;69982;51.758;5.784;2024-02-26T14:02:25;100609.84;;;6.75;83.16
80627;BME280;69982;51.758;5.784;2024-02-26T14:04:51;100611.83;;;6.77;83.07
80627;BME280;69982;51.758;5.784;2024-02-26T14:07:18;100615.88;;;6.78;83.02
80627;BME280;69982;51.758;5.784;2024-02-26T14:09:45;100614.92;;;6.77;83.01
80627;BME280;69982;51.758;5.784;2024-02-26T14:12:12;100611.66;;;6.75;83.12
80627;BME280;69982;51.758;5.784;2024-02-26T14:14:39;100622.27;;;6.73;83.24
80627;BME280;69982;51.758;5.784;2024-02-26T14:17:06;100631.46;;;6.73;83.44
80627;BME280;69982;51.758;5.784;2024-02-26T14:19:35;100637.67;;;6.76;83.24
80627;BME280;69982;51.758;5.784;2024-02-26T14:22:01;100642.04;;;6.77;83.36
80627;BME280;69982;51.758;5.784;2024-02-26T14:24:31;100645.41;;;6.79;83.30
80627;BME280;69982;51.758;5.784;2024-02-26T14:26:59;100650.82;;;6.81;83.23
80627;BME280;69982;51.758;5.784;2024-02-26T14:29:25;100654.92;;;6.84;83.13
80627;BME280;69982;51.758;5.784;2024-02-26T14:31:51;100662.96;;;6.84;82.95
80627;BME280;69982;51.758;5.784;2024-02-26T14:34:18;100666.83;;;6.85;82.91
80627;BME280;69982;51.758;5.784;2024-02-26T14:36:47;100668.93;;;6.86;83.08
80627;BME280;69982;51.758;5.784;2024-02-26T14:39:13;100670.20;;;6.86;82.86
80627;BME280;69982;51.758;5.784;2024-02-26T14:41:40;100662.92;;;6.85;83.12
80627;BME280;69982;51.758;5.784;2024-02-26T14:44:07;100665.89;;;6.82;83.04
80627;BME280;69982;51.758;5.784;2024-02-26T14:46:36;100670.90;;;6.80;83.26
80627;BME280;69982;51.758;5.784;2024-02-26T14:49:03;100670.80;;;6.77;83.23
80627;BME280;69982;51.758;5.784;2024-02-26T14:51:40;100675.98;;;6.76;83.32
80627;BME280;69982;51.758;5.784;2024-02-26T14:54:07;100676.64;;;6.77;83.21
80627;BME280;69982;51.758;5.784;2024-02-26T14:57:12;100677.46;;;6.77;83.22
80627;BME280;69982;51.758;5.784;2024-02-26T14:59:39;100683.62;;;6.81;83.19
80627;BME280;69982;51.758;5.784;2024-02-26T15:02:08;100687.42;;;6.86;83.17
80627;BME280;69982;51.758;5.784;2024-02-26T15:04:51;100695.24;;;6.91;83.05
80627;BME280;69982;51.758;5.784;2024-02-26T15:07:48;100703.48;;;6.93;82.96
80627;BME280;69982;51.758;5.784;2024-02-26T15:10:21;100706.57;;;6.95;83.06
80627;BME280;69982;51.758;5.784;2024-02-26T15:13:08;100710.03;;;6.96;83.13
80627;BME280;69982;51.758;5.784;2024-02-26T15:15:37;100713.30;;;6.94;83.00
80627;BME280;69982;51.758;5.784;2024-02-26T15:18:07;100718.26;;;6.91;83.07
80627;BME280;69982;51.758;5.784;2024-02-26T15:20:50;100726.70;;;6.89;83.01
80627;BME280;69982;51.758;5.784;2024-02-26T15:23:22;100728.55;;;6.91;82.93
80627;BME280;69982;51.758;5.784;2024-02-26T15:25:51;100732.89;;;6.92;82.99
80627;BME280;69982;51.758;5.784;2024-02-26T15:28:19;100734.70;;;6.96;82.94
80627;BME280;69982;51.758;5.784;2024-02-26T15:30:46;100740.14;;;7.01;82.87
80627;BME280;69982;51.758;5.784;2024-02-26T15:33:14;100745.98;;;7.06;82.91
80627;BME280;69982;51.758;5.784;2024-02-26T15:35:43;100748.11;;;7.10;82.70
80627;BME280;69982;51.758;5.784;2024-02-26T15:38:12;100754.73;;;7.12;82.61
80627;BME280;69982;51.758;5.784;2024-02-26T15:40:39;100757.33;;;7.15;82.68
80627;BME280;69982;51.758;5.784;2024-02-26T15:43:06;100763.84;;;7.17;82.56
80627;BME280;69982;51.758;5.784;2024-02-26T15:45:33;100769.58;;;7.15;82.56
80627;BME280;69982;51.758;5.784;2024-02-26T15:48:07;100765.95;;;7.11;82.60
80627;BME280;69982;51.758;5.784;2024-02-26T15:50:34;100771.84;;;7.08;82.60
80627;BME280;69982;51.758;5.784;2024-02-26T15:53:00;100776.20;;;7.04;82.57
80627;BME280;69982;51.758;5.784;2024-02-26T15:55:38;100771.83;;;7.03;82.66
80627;BME280;69982;51.758;5.784;2024-02-26T15:58:09;100773.67;;;7.02;82.32
80627;BME280;69982;51.758;5.784;2024-02-26T16:00:40;100772.98;;;7.04;82.42
80627;BME280;69982;51.758;5.784;2024-02-26T16:03:09;100777.36;;;7.05;82.45
80627;BME280;69982;51.758;5.784;2024-02-26T16:05:37;100785.77;;;7.08;82.36
80627;BME280;69982;51.758;5.784;2024-02-26T16:08:33;100783.80;;;7.09;82.27
80627;BME280;69982;51.758;5.784;2024-02-26T16:11:01;100790.88;;;7.09;82.12
80627;BME280;69982;51.758;5.784;2024-02-26T16:13:30;100794.16;;;7.06;82.13
80627;BME280;69982;51.758;5.784;2024-02-26T16:16:09;100790.81;;;7.04;81.83
80627;BME280;69982;51.758;5.784;2024-02-26T16:18:42;100795.36;;;7.00;81.74
80627;BME280;69982;51.758;5.784;2024-02-26T16:21:21;100797.49;;;6.96;82.07
80627;BME280;69982;51.758;5.784;2024-02-26T16:23:55;100802.84;;;6.93;81.94
80627;BME280;69982;51.758;5.784;2024-02-26T16:26:22;100803.98;;;6.90;81.93
80627;BME280;69982;51.758;5.784;2024-02-26T16:28:50;100806.08;;;6.89;81.73
80627;BME280;69982;51.758;5.784;2024-02-26T16:31:20;100803.64;;;6.88;81.61
80627;BME280;69982;51.758;5.784;2024-02-26T16:34:12;100812.19;;;6.89;81.59
80627;BME280;69982;51.758;5.784;2024-02-26T16:36:40;100812.08;;;6.90;81.59
80627;BME280;69982;51.758;5.784;2024-02-26T16:39:15;100815.63;;;6.91;81.41
80627;BME280;69982;51.758;5.784;2024-02-26T16:41:43;100822.98;;;6.91;81.22
80627;BME280;69982;51.758;5.784;2024-02-26T16:44:09;100827.88;;;6.91;81.15
80627;BME280;69982;51.758;5.784;2024-02-26T16:46:37;100837.88;;;6.90;81.27
80627;BME280;69982;51.758;5.784;2024-02-26T16:49:07;100845.44;;;6.88;81.27
80627;BME280;69982;51.758;5.784;2024-02-26T16:52:16;100848.70;;;6.84;81.23
80627;BME280;69982;51.758;5.784;2024-02-26T16:54:43;100855.06;;;6.79;81.17
80627;BME280;69982;51.758;5.784;2024-02-26T16:57:14;100859.91;;;6.75;81.20
80627;BME280;69982;51.758;5.784;2024-02-26T16:59:43;100868.86;;;6.72;81.10
80627;BME280;69982;51.758;5.784;2024-02-26T17:02:20;100867.75;;;6.66;81.17
80627;BME280;69982;51.758;5.784;2024-02-26T17:04:47;100878.31;;;6.65;81.13
80627;BME280;69982;51.758;5.784;2024-02-26T17:07:14;100884.67;;;6.66;81.24
80627;BME280;69982;51.758;5.784;2024-02-26T17:09:42;100883.91;;;6.69;81.08
80627;BME280;69982;51.758;5.784;2024-02-26T17:12:09;100886.92;;;6.71;80.95
80627;BME280;69982;51.758;5.784;2024-02-26T17:14:38;100884.74;;;6.73;80.91
80627;BME280;69982;51.758;5.784;2024-02-26T17:17:04;100891.92;;;6.75;80.86
80627;BME280;69982;51.758;5.784;2024-02-26T17:19:31;100893.84;;;6.76;80.89
80627;BME280;69982;51.758;5.784;2024-02-26T17:21:58;100894.38;;;6.76;80.61
80627;BME280;69982;51.758;5.784;2024-02-26T17:24:25;100903.05;;;6.76;80.86
80627;BME280;69982;51.758;5.784;2024-02-26T17:26:53;100913.26;;;6.74;80.58
80627;BME280;69982;51.758;5.784;2024-02-26T17:29:21;100918.88;;;6.72;80.66
80627;BME280;69982;51.758;5.784;2024-02-26T17:31:47;100930.49;;;6.69;80.69
80627;BME280;69982;51.758;5.784;2024-02-26T17:34:14;100933.64;;;6.66;80.76
80627;BME280;69982;51.758;5.784;2024-02-26T17:36:41;100938.06;;;6.63;80.92
80627;BME280;69982;51.758;5.784;2024-02-26T17:39:08;100942.23;;;6.59;80.71
80627;BME280;69982;51.758;5.784;2024-02-26T17:41:35;100946.34;;;6.57;80.86
80627;BME280;69982;51.758;5.784;2024-02-26T17:44:06;100954.54;;;6.56;80.59
80627;BME280;69982;51.758;5.784;2024-02-26T17:46:34;100958.61;;;6.57;80.79
80627;BME280;69982;51.758;5.784;2024-02-26T17:49:01;100965.13;;;6.56;80.69
80627;BME280;69982;51.758;5.784;2024-02-26T17:51:27;100975.39;;;6.58;80.78
80627;BME280;69982;51.758;5.784;2024-02-26T17:53:54;100983.40;;;6.59;80.62
80627;BME280;69982;51.758;5.784;2024-02-26T17:56:22;100989.60;;;6.60;80.75